createdAt,value
2018-07-26T00:01:00.001Z,24.10
2018-07-26T00:03:57.340Z,24.20
2018-07-26T00:06:55.338Z,24.24
2018-07-26T00:09:53.215Z,24.20
2018-07-26T00:12:50.988Z,24.13
2018-07-26T00:15:48.046Z,24.09
2018-07-26T00:18:45.239Z,23.95
2018-07-26T00:21:43.206Z,23.89
2018-07-26T00:24:40.631Z,23.62
2018-07-26T00:27:37.863Z,23.51
2018-07-26T00:30:35.802Z,23.53
2018-07-26T00:33:33.823Z,23.61
2018-07-26T00:36:31.624Z,23.82
2018-07-26T00:39:30.702Z,23.87
2018-07-26T00:42:28.157Z,23.85
2018-07-26T00:45:25.432Z,23.59
2018-07-26T00:48:23.469Z,23.37
2018-07-26T00:51:21.164Z,23.34
2018-07-26T00:54:18.543Z,23.40
2018-07-26T00:57:15.617Z,23.47
2018-07-26T01:00:13.057Z,23.65
2018-07-26T01:03:10.723Z,23.73
2018-07-26T01:06:08.164Z,23.83
2018-07-26T01:09:06.151Z,23.84
2018-07-26T01:12:04.217Z,23.87
2018-07-26T01:15:01.351Z,23.82
2018-07-26T01:17:58.628Z,23.82
2018-07-26T01:20:55.807Z,23.61
2018-07-26T01:23:54.102Z,23.31
2018-07-26T01:26:51.230Z,23.17
2018-07-26T01:29:48.622Z,23.20
2018-07-26T01:32:46.239Z,23.01
2018-07-26T01:35:43.692Z,23.01
2018-07-26T01:38:41.735Z,23.09
2018-07-26T01:41:39.751Z,22.83
2018-07-26T01:44:41.114Z,22.80
2018-07-26T01:47:39.118Z,22.65
2018-07-26T01:50:36.754Z,22.37
2018-07-26T01:53:34.134Z,22.29
2018-07-26T01:56:31.363Z,22.28
2018-07-26T01:59:28.507Z,22.35
2018-07-26T02:02:25.556Z,22.44
2018-07-26T02:05:22.770Z,22.46
2018-07-26T02:08:19.783Z,22.48
2018-07-26T02:11:16.998Z,22.51
2018-07-26T02:14:18.540Z,22.46
2018-07-26T02:17:16.331Z,22.26
2018-07-26T02:20:13.984Z,22.26
2018-07-26T02:23:11.863Z,22.26
2018-07-26T02:26:09.700Z,22.24
2018-07-26T02:29:07.811Z,22.00
2018-07-26T02:32:05.367Z,21.80
2018-07-26T02:35:03.348Z,21.60
2018-07-26T02:38:01.058Z,21.54
2018-07-26T02:40:58.360Z,21.60
2018-07-26T02:43:55.917Z,21.66
2018-07-26T02:46:53.080Z,21.53
2018-07-26T02:49:51.030Z,21.33
2018-07-26T02:52:48.604Z,21.21
2018-07-26T02:58:35.234Z,21.27
2018-07-26T03:01:33.120Z,21.31
2018-07-26T03:04:30.876Z,21.36
2018-07-26T03:07:28.727Z,21.13
2018-07-26T03:10:26.027Z,21.08
2018-07-26T03:13:23.567Z,20.97
2018-07-26T03:16:20.743Z,20.88
2018-07-26T03:19:18.055Z,20.82
2018-07-26T03:22:15.368Z,20.78
2018-07-26T03:25:12.720Z,20.61
2018-07-26T03:28:10.476Z,20.52
2018-07-26T03:31:07.666Z,20.53
2018-07-26T03:34:05.303Z,20.67
2018-07-26T03:37:03.260Z,20.66
2018-07-26T03:40:00.935Z,20.85
2018-07-26T03:42:58.629Z,20.83
2018-07-26T03:45:56.779Z,20.66
2018-07-26T03:48:53.860Z,20.54
2018-07-26T03:51:51.298Z,20.70
2018-07-26T03:54:48.493Z,20.76
2018-07-26T03:57:46.559Z,21.13
2018-07-26T04:00:44.412Z,21.40
2018-07-26T04:03:42.347Z,21.74
2018-07-26T04:06:40.415Z,22.03
2018-07-26T04:09:38.216Z,22.20
2018-07-26T04:12:35.399Z,22.50
2018-07-26T04:15:32.459Z,22.92
2018-07-26T04:18:29.912Z,23.06
2018-07-26T04:21:27.975Z,23.11
2018-07-26T04:24:26.088Z,23.10
2018-07-26T04:27:24.244Z,23.40
2018-07-26T04:30:21.447Z,23.79
2018-07-26T04:33:19.059Z,23.79
2018-07-26T04:36:16.306Z,23.77
2018-07-26T04:39:13.179Z,24.05
2018-07-26T04:42:11.168Z,25.07
2018-07-26T04:45:08.514Z,25.73
2018-07-26T04:48:06.611Z,26.13
2018-07-26T04:51:03.945Z,26.48
2018-07-26T04:54:01.216Z,26.81
2018-07-26T04:56:59.139Z,27.88
2018-07-26T04:59:56.651Z,28.33
2018-07-26T05:02:54.412Z,27.99
2018-07-26T05:05:52.384Z,28.51
2018-07-26T05:08:50.043Z,28.84
2018-07-26T05:11:47.893Z,28.77
2018-07-26T05:14:45.115Z,29.51
2018-07-26T05:17:42.204Z,29.67
2018-07-26T05:20:39.486Z,29.77
2018-07-26T05:23:37.392Z,30.59
2018-07-26T05:26:34.855Z,31.09
2018-07-26T05:29:32.403Z,31.59
2018-07-26T05:32:30.392Z,31.83
2018-07-26T05:35:27.488Z,32.34
2018-07-26T05:38:24.700Z,32.79
2018-07-26T05:41:21.804Z,33.13
2018-07-26T05:44:19.095Z,33.38
2018-07-26T05:47:16.564Z,33.89
2018-07-26T05:50:15.529Z,34.12
2018-07-26T05:53:13.723Z,34.42
2018-07-26T05:56:11.683Z,34.20
2018-07-26T05:59:09.348Z,32.71
2018-07-26T06:02:06.543Z,31.61
2018-07-26T06:05:04.258Z,30.11
2018-07-26T06:08:01.593Z,29.43
2018-07-26T06:10:58.730Z,29.83
2018-07-26T06:13:55.660Z,29.73
2018-07-26T06:16:53.508Z,30.38
2018-07-26T06:19:50.905Z,32.02
2018-07-26T06:22:48.183Z,32.93
2018-07-26T06:25:45.406Z,33.26
2018-07-26T06:28:42.963Z,33.23
2018-07-26T06:31:40.848Z,33.51
2018-07-26T06:34:38.796Z,32.52
2018-07-26T06:37:36.279Z,32.52
2018-07-26T06:40:36.066Z,31.45
2018-07-26T06:43:36.100Z,31.51
2018-07-26T06:46:33.208Z,31.66
2018-07-26T06:49:30.749Z,32.69
2018-07-26T06:52:28.378Z,32.93
2018-07-26T06:55:26.302Z,33.90
2018-07-26T06:58:23.431Z,34.63
2018-07-26T07:01:21.512Z,35.10
2018-07-26T07:04:19.393Z,35.11
2018-07-26T07:07:17.349Z,35.38
2018-07-26T07:10:15.362Z,34.73
2018-07-26T07:13:12.659Z,36.33
2018-07-26T07:16:09.728Z,36.34
2018-07-26T07:19:07.291Z,36.35
2018-07-26T07:22:04.556Z,37.94
2018-07-26T07:25:02.504Z,36.77
2018-07-26T07:27:59.524Z,36.23
2018-07-26T07:30:57.337Z,35.08
2018-07-26T07:33:54.408Z,35.33
2018-07-26T07:36:52.040Z,36.11
2018-07-26T07:39:50.075Z,36.40
2018-07-26T07:42:48.097Z,36.80
2018-07-26T07:45:45.735Z,37.23
2018-07-26T07:48:42.732Z,37.16
2018-07-26T07:51:40.207Z,37.18
2018-07-26T07:54:37.320Z,36.95
2018-07-26T07:57:34.507Z,37.46
2018-07-26T08:00:32.768Z,37.98
2018-07-26T08:03:29.899Z,38.27
2018-07-26T08:06:28.035Z,37.76
2018-07-26T08:09:25.160Z,38.08
2018-07-26T08:12:22.439Z,37.83
2018-07-26T08:15:20.649Z,38.84
2018-07-26T08:18:17.710Z,38.61
2018-07-26T08:21:15.837Z,39.47
2018-07-26T08:24:13.643Z,40.12
2018-07-26T08:27:11.108Z,39.94
2018-07-26T08:30:08.267Z,40.36
2018-07-26T08:33:05.324Z,38.82
2018-07-26T08:36:02.641Z,39.11
2018-07-26T08:39:00.180Z,39.52
2018-07-26T08:41:58.165Z,40.12
2018-07-26T08:44:55.168Z,39.99
2018-07-26T08:47:52.420Z,40.12
2018-07-26T08:50:49.461Z,39.50
2018-07-26T08:53:47.339Z,39.13
2018-07-26T08:56:44.662Z,39.74
2018-07-26T08:59:42.049Z,39.86
2018-07-26T09:02:40.063Z,40.98
2018-07-26T09:05:37.261Z,40.86
2018-07-26T09:08:34.920Z,40.15
2018-07-26T09:11:32.162Z,40.63
2018-07-26T09:14:29.337Z,40.35
2018-07-26T09:17:26.431Z,39.05
2018-07-26T09:20:23.682Z,37.82
2018-07-26T09:23:21.167Z,38.50
2018-07-26T09:26:18.293Z,38.60
2018-07-26T09:29:15.416Z,38.62
2018-07-26T09:32:12.590Z,38.48
2018-07-26T09:35:10.381Z,37.60
2018-07-26T09:38:07.533Z,38.36
2018-07-26T09:41:04.582Z,38.10
2018-07-26T09:44:01.630Z,37.85
2018-07-26T09:46:58.944Z,37.37
2018-07-26T09:49:56.078Z,37.30
2018-07-26T09:52:53.523Z,36.42
2018-07-26T09:55:50.872Z,37.21
2018-07-26T09:58:48.635Z,37.72
2018-07-26T10:01:46.644Z,37.86
2018-07-26T10:04:44.733Z,37.14
2018-07-26T10:07:42.014Z,37.65
2018-07-26T10:10:39.064Z,37.24
2018-07-26T10:13:36.446Z,36.57
2018-07-26T10:16:33.675Z,38.08
2018-07-26T10:19:30.918Z,37.80
2018-07-26T10:22:28.696Z,37.09
2018-07-26T10:25:26.760Z,36.76
2018-07-26T10:28:24.096Z,36.91
2018-07-26T10:31:21.184Z,37.43
2018-07-26T10:34:18.428Z,37.15
2018-07-26T10:37:15.612Z,36.82
2018-07-26T10:40:12.749Z,36.10
2018-07-26T10:43:10.023Z,36.48
2018-07-26T10:46:07.184Z,36.71
2018-07-26T10:49:04.376Z,36.96
2018-07-26T10:52:01.490Z,37.73
2018-07-26T10:54:59.453Z,37.72
2018-07-26T10:57:57.560Z,37.25
2018-07-26T11:00:54.727Z,36.86
2018-07-26T11:03:51.883Z,36.99
2018-07-26T11:06:49.992Z,37.18
2018-07-26T11:09:47.391Z,36.77
2018-07-26T11:12:45.401Z,36.87
2018-07-26T11:15:45.676Z,36.42
2018-07-26T11:18:42.953Z,36.28
2018-07-26T11:21:40.503Z,37.24
2018-07-26T11:24:37.893Z,37.22
2018-07-26T11:27:35.424Z,36.27
2018-07-26T11:30:33.174Z,37.14
2018-07-26T11:33:30.651Z,37.24
2018-07-26T11:36:28.040Z,36.00
2018-07-26T11:39:25.353Z,35.19
2018-07-26T11:42:23.325Z,34.57
2018-07-26T11:45:20.462Z,34.56
2018-07-26T11:48:17.644Z,34.58
2018-07-26T11:51:14.908Z,34.92
2018-07-26T11:54:12.191Z,34.61
2018-07-26T11:57:09.292Z,34.42
2018-07-26T12:00:06.937Z,34.21
2018-07-26T12:03:04.459Z,34.52
2018-07-26T12:06:01.718Z,34.32
2018-07-26T12:08:59.080Z,34.28
2018-07-26T12:11:56.616Z,34.17
2018-07-26T12:14:54.350Z,34.42
2018-07-26T12:17:51.458Z,34.63
2018-07-26T12:20:48.633Z,34.13
2018-07-26T12:23:45.850Z,34.26
2018-07-26T12:26:42.967Z,34.34
2018-07-26T12:29:40.809Z,34.01
2018-07-26T12:32:37.939Z,34.53
2018-07-26T12:35:35.960Z,34.11
2018-07-26T12:38:33.039Z,34.22
2018-07-26T12:41:30.513Z,33.93
2018-07-26T12:44:28.331Z,33.95
2018-07-26T12:47:26.323Z,34.57
2018-07-26T12:50:24.142Z,34.00
2018-07-26T12:53:22.323Z,34.13
2018-07-26T12:56:20.356Z,33.98
2018-07-26T12:59:18.517Z,34.10
2018-07-26T13:02:15.845Z,33.76
2018-07-26T13:05:13.027Z,33.96
2018-07-26T13:08:10.897Z,34.00
2018-07-26T13:11:09.051Z,34.21
2018-07-26T13:14:06.684Z,34.25
2018-07-26T13:17:03.996Z,34.50
2018-07-26T13:20:01.172Z,34.30
2018-07-26T13:22:58.352Z,34.19
2018-07-26T13:25:55.650Z,34.08
2018-07-26T13:28:53.743Z,34.14
2018-07-26T13:31:51.203Z,34.33
2018-07-26T13:34:48.893Z,34.32
2018-07-26T13:37:46.415Z,33.95
2018-07-26T13:40:43.665Z,34.15
2018-07-26T13:43:40.997Z,33.91
2018-07-26T13:46:39.112Z,34.15
2018-07-26T13:49:36.393Z,34.00
2018-07-26T13:52:42.451Z,34.09
2018-07-26T13:55:39.787Z,34.03
2018-07-26T13:58:36.932Z,34.16
2018-07-26T14:01:34.131Z,34.06
2018-07-26T14:04:31.396Z,33.90
2018-07-26T14:07:28.619Z,33.98
2018-07-26T14:10:25.560Z,33.89
2018-07-26T14:13:23.735Z,33.87
2018-07-26T14:16:20.869Z,33.97
2018-07-26T14:19:18.071Z,34.31
2018-07-26T14:22:16.213Z,34.21
2018-07-26T14:25:13.900Z,34.25
2018-07-26T14:28:10.993Z,34.23
2018-07-26T14:31:08.171Z,34.36
2018-07-26T14:34:05.279Z,34.13
2018-07-26T14:37:02.696Z,33.98
2018-07-26T14:40:00.722Z,34.18
2018-07-26T14:42:58.291Z,33.98
2018-07-26T14:45:55.647Z,33.86
2018-07-26T14:48:52.936Z,33.74
2018-07-26T14:51:50.226Z,33.93
2018-07-26T14:54:48.159Z,33.81
2018-07-26T14:57:45.591Z,33.69
2018-07-26T15:00:43.672Z,33.77
2018-07-26T15:03:40.691Z,33.82
2018-07-26T15:06:38.023Z,33.93
2018-07-26T15:09:35.864Z,34.00
2018-07-26T15:12:32.976Z,34.07
2018-07-26T15:15:30.053Z,33.86
2018-07-26T15:18:27.306Z,33.87
2018-07-26T15:21:24.570Z,34.13
2018-07-26T15:24:21.825Z,34.15
2018-07-26T15:27:19.856Z,34.01
2018-07-26T15:30:17.042Z,33.92
2018-07-26T15:33:14.229Z,33.81
2018-07-26T15:36:11.756Z,33.91
2018-07-26T15:39:09.065Z,33.68
2018-07-26T15:42:06.815Z,33.75
2018-07-26T15:45:03.848Z,33.79
2018-07-26T15:48:01.001Z,33.80
2018-07-26T15:50:58.281Z,33.68
2018-07-26T15:53:56.031Z,33.59
2018-07-26T15:56:53.897Z,33.64
2018-07-26T15:59:51.114Z,33.65
2018-07-26T16:02:48.836Z,33.73
2018-07-26T16:05:46.067Z,33.68
2018-07-26T16:08:43.204Z,33.59
2018-07-26T16:11:41.115Z,33.55
2018-07-26T16:14:39.127Z,33.59
2018-07-26T16:17:36.941Z,33.59
2018-07-26T16:20:34.052Z,33.57
2018-07-26T16:23:31.322Z,33.55
2018-07-26T16:26:29.567Z,33.57
2018-07-26T16:29:27.676Z,33.57
2018-07-26T16:32:25.826Z,33.49
2018-07-26T16:35:23.076Z,33.43
2018-07-26T16:38:20.226Z,33.44
2018-07-26T16:41:17.472Z,33.52
2018-07-26T16:44:15.443Z,33.47
2018-07-26T16:47:12.949Z,33.38
2018-07-26T16:50:10.386Z,33.34
2018-07-26T16:53:08.487Z,33.29
2018-07-26T16:56:06.045Z,33.16
2018-07-26T16:59:03.935Z,33.15
2018-07-26T17:02:01.417Z,33.06
2018-07-26T17:04:58.603Z,33.01
2018-07-26T17:07:58.655Z,33.08
2018-07-26T17:10:56.491Z,33.03
2018-07-26T17:13:54.012Z,32.93
2018-07-26T17:16:52.144Z,32.92
2018-07-26T17:19:49.310Z,32.91
2018-07-26T17:22:46.905Z,32.87
2018-07-26T17:25:44.671Z,32.86
2018-07-26T17:28:41.950Z,32.81
2018-07-26T17:31:39.147Z,32.79
2018-07-26T17:34:36.956Z,32.74
2018-07-26T17:37:34.660Z,32.68
2018-07-26T17:40:32.570Z,32.61
2018-07-26T17:43:29.595Z,32.55
2018-07-26T17:46:27.098Z,32.50
2018-07-26T17:49:24.250Z,32.50
2018-07-26T17:52:22.125Z,32.44
2018-07-26T17:55:20.395Z,32.39
2018-07-26T17:58:18.351Z,32.37
2018-07-26T18:01:15.436Z,32.28
2018-07-26T18:04:12.915Z,32.23
2018-07-26T18:07:10.642Z,32.19
2018-07-26T18:10:07.900Z,32.10
2018-07-26T18:13:05.582Z,32.02
2018-07-26T18:16:03.364Z,31.99
2018-07-26T18:19:00.912Z,31.90
2018-07-26T18:21:58.504Z,31.83
2018-07-26T18:24:55.940Z,31.73
2018-07-26T18:27:53.529Z,31.71
2018-07-26T18:30:51.166Z,31.61
2018-07-26T18:33:48.728Z,31.51
2018-07-26T18:36:46.005Z,31.45
2018-07-26T18:39:43.965Z,31.32
2018-07-26T18:42:41.307Z,31.31
2018-07-26T18:45:38.792Z,31.23
2018-07-26T18:48:36.764Z,31.17
2018-07-26T18:51:34.679Z,31.05
2018-07-26T18:54:32.615Z,30.95
2018-07-26T18:57:30.697Z,30.82
2018-07-26T19:00:29.291Z,30.75
2018-07-26T19:03:27.228Z,30.65
2018-07-26T19:06:24.717Z,30.57
2018-07-26T19:09:23.005Z,30.45
2018-07-26T19:12:20.655Z,30.35
2018-07-26T19:15:19.060Z,30.20
2018-07-26T19:18:16.827Z,30.09
2018-07-26T19:21:14.688Z,30.03
2018-07-26T19:24:12.082Z,29.94
2018-07-26T19:27:09.251Z,29.85
2018-07-26T19:30:07.007Z,29.79
2018-07-26T19:33:04.336Z,29.73
2018-07-26T19:36:02.152Z,29.61
2018-07-26T19:38:59.146Z,29.47
2018-07-26T19:41:56.909Z,29.36
2018-07-26T19:44:54.904Z,29.26
2018-07-26T19:47:51.948Z,28.74
2018-07-26T19:50:49.113Z,28.40
2018-07-26T19:53:46.406Z,28.41
2018-07-26T19:56:44.541Z,28.40
2018-07-26T19:59:42.552Z,28.39
2018-07-26T20:02:40.432Z,28.03
2018-07-26T20:05:37.847Z,27.80
2018-07-26T20:08:35.817Z,27.53
2018-07-26T20:11:33.870Z,26.98
2018-07-26T20:14:30.866Z,26.97
2018-07-26T20:17:27.787Z,26.79
2018-07-26T20:20:25.449Z,26.60
2018-07-26T20:23:23.042Z,26.54
2018-07-26T20:26:20.370Z,26.44
2018-07-26T20:29:17.858Z,26.45
2018-07-26T20:32:15.380Z,26.35
2018-07-26T20:35:13.087Z,26.12
2018-07-26T20:38:10.615Z,26.04
2018-07-26T20:41:08.199Z,26.04
2018-07-26T20:44:06.194Z,25.93
2018-07-26T20:47:03.779Z,25.93
2018-07-26T20:50:01.304Z,25.77
2018-07-26T20:52:59.038Z,25.84
2018-07-26T20:55:56.808Z,25.86
2018-07-26T20:58:54.413Z,25.85
2018-07-26T21:01:52.594Z,25.63
2018-07-26T21:04:50.755Z,25.35
2018-07-26T21:07:47.912Z,25.16
2018-07-26T21:10:45.860Z,25.02
2018-07-26T21:13:43.871Z,24.86
2018-07-26T21:16:40.816Z,24.77
2018-07-26T21:19:38.688Z,24.88
2018-07-26T21:22:36.706Z,24.70
2018-07-26T21:25:34.304Z,24.59
2018-07-26T21:28:32.315Z,24.49
2018-07-26T21:31:29.475Z,24.38
2018-07-26T21:34:27.422Z,24.55
2018-07-26T21:37:24.500Z,24.64
2018-07-26T21:40:22.268Z,24.56
2018-07-26T21:43:20.081Z,24.48
2018-07-26T21:46:17.219Z,24.43
2018-07-26T21:49:14.406Z,24.42
2018-07-26T21:52:11.743Z,24.29
2018-07-26T21:55:09.283Z,24.15
2018-07-26T21:58:07.167Z,24.12
2018-07-26T22:01:05.872Z,24.20
2018-07-26T22:04:03.463Z,24.21
2018-07-26T22:07:00.553Z,23.97
2018-07-26T22:09:57.720Z,23.81
2018-07-26T22:12:55.496Z,23.74
2018-07-26T22:15:53.434Z,23.81
2018-07-26T22:18:51.429Z,23.75
2018-07-26T22:21:48.531Z,23.51
2018-07-26T22:24:46.618Z,23.18
2018-07-26T22:27:44.588Z,23.14
2018-07-26T22:30:41.486Z,23.31
2018-07-26T22:33:39.450Z,23.39
2018-07-26T22:36:36.496Z,23.24
2018-07-26T22:39:34.435Z,23.28
2018-07-26T22:42:31.431Z,23.16
2018-07-26T22:45:29.332Z,23.16
2018-07-26T22:48:27.213Z,23.04
2018-07-26T22:51:24.960Z,23.01
2018-07-26T22:54:22.294Z,23.11
2018-07-26T22:57:19.367Z,23.07
2018-07-26T23:00:16.904Z,23.10
2018-07-26T23:03:14.567Z,23.11
2018-07-26T23:06:11.803Z,22.85
2018-07-26T23:09:08.817Z,22.72
2018-07-26T23:12:06.379Z,22.64
2018-07-26T23:15:03.920Z,22.56
2018-07-26T23:18:01.257Z,22.49
2018-07-26T23:20:58.734Z,22.55
2018-07-26T23:23:56.411Z,22.51
2018-07-26T23:26:53.320Z,22.42
2018-07-26T23:29:51.238Z,22.29
2018-07-26T23:32:48.474Z,22.49
2018-07-26T23:35:46.555Z,22.56
2018-07-26T23:38:43.771Z,22.42
2018-07-26T23:41:41.819Z,22.16
2018-07-26T23:44:39.687Z,22.15
2018-07-26T23:47:36.934Z,22.25
2018-07-26T23:50:35.020Z,22.23
2018-07-26T23:53:32.164Z,21.99
2018-07-26T23:56:30.288Z,21.87
2018-07-26T23:59:27.891Z,21.97
